< < Back
Terminal Aerodrome Forecast


Current Version              Previous Versions:   1  2  3  4  5  6  7  8  9  

Terminal Aerodrome Forecast

893
FTUS42 KFFC 241721
TAFCSG
TAF
KCSG 241721Z 2418/2518 20005KT P6SM VCSH SCT050
     FM250200 00000KT P6SM SCT250
     FM251500 26003KT P6SM SCT035=

Latest METAR

744
SAUS70 KWBC 241754
MTRCSG
METAR KCSG 241751Z 00000KT 10SM CLR 34/19 A3003 RMK AO2 SLP162 T03440189
10350 20261 58008


USA.gov is the U.S. government's official web portal to all federal, state and local government web resources and services.